Time;durP1;ratioP1;P1;durP2;ratioP2;P2;SDS_P1;SDS_P2;PMS_P1;PMS_P2;Temp;Humidity;BMP_temperature;BMP_pressure;BME280_temperature;BME280_humidity;BME280_pressure;Samples;Min_cycle;Max_cycle;Signal;HPM_P1;HPM_P2
2022/10/16 00:01:24;;;;;;;4.20;3.60;;;10.30;83.90;;;;;;5047583;28;20233;-74
2022/10/16 00:03:50;;;;;;;3.95;3.50;;;10.30;84.10;;;;;;5048793;28;20211;-74
2022/10/16 00:06:19;;;;;;;4.35;3.40;;;10.30;84.00;;;;;;5048941;28;20191;-74
2022/10/16 00:08:45;;;;;;;3.25;3.05;;;10.20;83.70;;;;;;5049036;28;20720;-75
2022/10/16 00:11:16;;;;;;;4.32;3.97;;;10.20;83.60;;;;;;5051602;28;20180;-74
2022/10/16 00:13:43;;;;;;;3.67;3.35;;;10.20;83.90;;;;;;5048283;28;20253;-74
2022/10/16 00:16:09;;;;;;;4.90;3.83;;;10.20;85.30;;;;;;5050767;28;20190;-75
2022/10/16 00:18:36;;;;;;;4.30;4.00;;;10.20;86.00;;;;;;5051958;28;20183;-75
2022/10/16 00:21:08;;;;;;;5.22;3.55;;;10.10;84.60;;;;;;5050939;28;20186;-74
2022/10/16 00:23:35;;;;;;;3.45;3.15;;;10.10;85.80;;;;;;5043284;28;20206;-74
2022/10/16 00:26:05;;;;;;;5.28;3.53;;;10.10;86.00;;;;;;5046109;28;20186;-74
2022/10/16 00:28:31;;;;;;;3.83;3.53;;;10.00;86.10;;;;;;5050831;28;20211;-74
2022/10/16 00:30:57;;;;;;;7.68;3.92;;;10.00;86.40;;;;;;5050578;28;20221;-75
2022/10/16 00:33:23;;;;;;;3.83;3.58;;;10.00;86.40;;;;;;5053302;28;20883;-75
2022/10/16 00:35:50;;;;;;;5.60;3.90;;;9.90;86.30;;;;;;5050080;28;20183;-74
2022/10/16 00:38:16;;;;;;;3.60;3.30;;;9.90;86.40;;;;;;5044009;28;20187;-74
2022/10/16 00:40:42;;;;;;;5.68;3.75;;;9.90;86.30;;;;;;5049727;28;20313;-75
2022/10/16 00:43:34;;;;;;;3.77;3.20;;;9.80;85.90;;;;;;5031278;28;20274;-74
2022/10/16 00:46:01;;;;;;;4.07;3.78;;;9.80;85.30;;;;;;5042632;28;20242;-75
2022/10/16 00:48:27;;;;;;;4.05;3.05;;;9.70;85.90;;;;;;5050452;28;20797;-74
2022/10/16 00:50:53;;;;;;;3.43;3.23;;;9.70;86.10;;;;;;5051106;28;20179;-74
2022/10/16 00:53:19;;;;;;;3.15;2.85;;;9.70;86.10;;;;;;5034732;28;20184;-75
2022/10/16 00:55:45;;;;;;;3.97;3.57;;;9.70;85.40;;;;;;5049182;28;20538;-74
2022/10/16 00:58:11;;;;;;;3.80;3.50;;;9.70;86.70;;;;;;5054071;28;20248;-74
2022/10/16 01:00:37;;;;;;;3.50;3.17;;;9.70;86.20;;;;;;5052766;28;20216;-74
2022/10/16 01:03:21;;;;;;;4.32;3.35;;;9.70;86.60;;;;;;5051825;28;20187;-74
2022/10/16 01:05:55;;;;;;;4.43;3.73;;;9.70;86.90;;;;;;5049716;28;20183;-74
2022/10/16 01:08:44;;;;;;;3.20;3.03;;;9.70;86.90;;;;;;5050637;28;20216;-74
2022/10/16 01:11:21;;;;;;;2.90;2.77;;;9.60;86.00;;;;;;5046561;28;20181;-74
2022/10/16 01:13:53;;;;;;;3.73;3.43;;;9.60;86.60;;;;;;5051520;28;20183;-75
2022/10/16 01:16:27;;;;;;;3.53;3.23;;;9.60;86.90;;;;;;5048750;28;20191;-73
2022/10/16 01:18:57;;;;;;;3.23;3.03;;;9.60;86.60;;;;;;5032259;28;20176;-73
2022/10/16 01:21:29;;;;;;;4.23;3.33;;;9.60;86.90;;;;;;5035724;28;20191;-74
2022/10/16 01:24:13;;;;;;;5.47;3.77;;;9.50;86.40;;;;;;5055723;28;20280;-74
2022/10/16 01:27:07;;;;;;;3.00;2.73;;;9.50;86.20;;;;;;5051583;28;20246;-72
2022/10/16 01:29:49;;;;;;;3.33;3.13;;;9.50;86.60;;;;;;5056434;28;20203;-74
2022/10/16 01:32:21;;;;;;;3.30;3.10;;;9.50;87.60;;;;;;5052592;28;20191;-73
2022/10/16 01:34:52;;;;;;;3.67;3.37;;;9.40;87.00;;;;;;5052090;28;20253;-74
2022/10/16 01:37:45;;;;;;;3.83;3.43;;;9.40;86.50;;;;;;5049748;28;20175;-75
2022/10/16 01:40:15;;;;;;;4.00;3.70;;;9.30;85.50;;;;;;5049192;28;21120;-75
2022/10/16 01:42:50;;;;;;;3.03;2.90;;;9.30;86.30;;;;;;5050230;28;20175;-74
2022/10/16 01:45:19;;;;;;;2.97;2.73;;;9.30;86.20;;;;;;5030755;28;20672;-74
2022/10/16 01:47:47;;;;;;;3.40;3.10;;;9.30;86.20;;;;;;5056948;28;20218;-74
2022/10/16 01:50:16;;;;;;;4.53;3.20;;;9.30;86.30;;;;;;5047192;28;20189;-74
2022/10/16 01:52:45;;;;;;;3.77;3.47;;;9.30;86.10;;;;;;5051277;28;20620;-74
2022/10/16 01:55:17;;;;;;;3.30;3.10;;;9.20;85.70;;;;;;5051836;28;20180;-74
2022/10/16 01:57:47;;;;;;;3.00;2.90;;;9.20;85.70;;;;;;5057194;28;20194;-74
2022/10/16 02:00:14;;;;;;;3.33;2.87;;;9.20;85.50;;;;;;5047210;28;20179;-74
2022/10/16 02:02:44;;;;;;;5.03;3.40;;;9.20;85.90;;;;;;5053145;28;20206;-74
2022/10/16 02:05:12;;;;;;;3.47;3.17;;;9.20;85.70;;;;;;5048563;28;20192;-74
2022/10/16 02:07:38;;;;;;;3.17;3.00;;;9.20;85.90;;;;;;5048545;28;20246;-74
2022/10/16 02:10:04;;;;;;;3.53;3.30;;;9.20;85.50;;;;;;5052207;28;20215;-74
2022/10/16 02:12:33;;;;;;;5.70;3.10;;;9.10;85.60;;;;;;5048988;28;20184;-74
2022/10/16 02:14:59;;;;;;;3.47;3.13;;;9.10;85.60;;;;;;5049588;28;20187;-74
2022/10/16 02:17:25;;;;;;;3.97;3.63;;;9.10;85.70;;;;;;5053517;28;20206;-75
2022/10/16 02:19:53;;;;;;;5.00;3.10;;;9.10;85.80;;;;;;5051358;28;20188;-74
2022/10/16 02:22:26;;;;;;;3.03;2.90;;;9.10;85.60;;;;;;5045097;28;21556;-75
2022/10/16 02:25:19;;;;;;;3.40;3.13;;;9.10;85.50;;;;;;5052536;28;20196;-74
2022/10/16 02:27:57;;;;;;;3.53;3.03;;;9.10;85.70;;;;;;5049811;28;20247;-74
2022/10/16 02:30:38;;;;;;;7.33;3.83;;;9.10;85.50;;;;;;5047038;28;20241;-74
2022/10/16 02:33:08;;;;;;;4.43;3.40;;;9.10;86.20;;;;;;5052182;28;20610;-74
2022/10/16 02:35:34;;;;;;;4.63;3.00;;;9.10;86.40;;;;;;5046283;28;20191;-75
2022/10/16 02:38:00;;;;;;;3.20;3.00;;;9.10;86.50;;;;;;5052535;28;20660;-74
2022/10/16 02:40:27;;;;;;;3.10;2.83;;;9.00;86.30;;;;;;5048802;28;20179;-74
2022/10/16 02:42:54;;;;;;;2.43;2.27;;;9.00;86.30;;;;;;5049697;28;20210;-74
2022/10/16 02:45:20;;;;;;;3.80;2.83;;;9.00;86.30;;;;;;5048362;28;20192;-74
2022/10/16 02:47:46;;;;;;;3.03;2.80;;;9.00;85.90;;;;;;5039972;28;20227;-74
2022/10/16 02:50:11;;;;;;;3.10;2.90;;;9.00;86.70;;;;;;5046028;28;20786;-73
2022/10/16 02:52:37;;;;;;;3.13;2.83;;;9.00;86.90;;;;;;5049957;28;20314;-73
2022/10/16 02:55:03;;;;;;;3.03;2.90;;;9.00;87.00;;;;;;5050357;28;20194;-74
2022/10/16 02:57:29;;;;;;;3.60;2.90;;;9.00;87.10;;;;;;5050788;28;20175;-74
2022/10/16 02:59:54;;;;;;;2.60;2.47;;;9.00;87.40;;;;;;5053927;28;20184;-74
2022/10/16 03:02:21;;;;;;;8.70;3.40;;;9.00;87.30;;;;;;5050222;28;20194;-73
2022/10/16 03:04:46;;;;;;;3.50;3.10;;;8.90;87.20;;;;;;5049374;28;20190;-74
2022/10/16 03:07:12;;;;;;;6.00;3.20;;;8.90;87.00;;;;;;5051602;28;20203;-74
2022/10/16 03:09:38;;;;;;;6.50;3.47;;;8.90;86.80;;;;;;5050789;28;20179;-74
2022/10/16 03:12:03;;;;;;;3.63;3.33;;;8.90;86.70;;;;;;5053056;28;20217;-73
2022/10/16 03:14:29;;;;;;;4.37;3.03;;;8.80;87.10;;;;;;5050746;28;20188;-73
2022/10/16 03:16:55;;;;;;;4.00;3.20;;;8.80;86.80;;;;;;5056341;28;20188;-73
2022/10/16 03:19:21;;;;;;;3.37;3.17;;;8.80;86.70;;;;;;5053564;28;20294;-73
2022/10/16 03:21:46;;;;;;;3.00;2.87;;;8.80;86.70;;;;;;5034723;28;20187;-73
2022/10/16 03:24:12;;;;;;;3.80;3.50;;;8.70;86.40;;;;;;5051059;28;20185;-74
2022/10/16 03:26:38;;;;;;;3.70;3.40;;;8.70;86.40;;;;;;5043833;28;20179;-73
2022/10/16 03:29:04;;;;;;;4.83;3.90;;;8.70;86.80;;;;;;5049247;28;20222;-73
2022/10/16 03:31:30;;;;;;;3.93;3.50;;;8.70;86.20;;;;;;5047670;28;20242;-74
2022/10/16 03:33:55;;;;;;;2.60;2.40;;;8.70;86.80;;;;;;5045504;28;20214;-73
2022/10/16 03:36:21;;;;;;;4.57;3.97;;;8.70;86.80;;;;;;5042393;28;20341;-73
2022/10/16 03:38:47;;;;;;;3.87;3.50;;;8.60;86.60;;;;;;5053532;28;20194;-74
2022/10/16 03:41:12;;;;;;;3.77;3.03;;;8.60;87.60;;;;;;5051332;28;20183;-73
2022/10/16 03:43:38;;;;;;;3.60;3.37;;;8.60;88.50;;;;;;5052262;28;20661;-74
2022/10/16 03:46:04;;;;;;;3.47;3.27;;;8.60;88.50;;;;;;5051942;28;20675;-73
2022/10/16 03:48:30;;;;;;;3.70;3.40;;;8.60;87.80;;;;;;5049187;28;21145;-74
2022/10/16 03:50:55;;;;;;;3.93;3.50;;;8.50;87.40;;;;;;5048853;28;20710;-74
2022/10/16 03:53:21;;;;;;;3.10;2.90;;;8.50;87.50;;;;;;5045926;28;20179;-73
2022/10/16 03:55:47;;;;;;;3.50;3.13;;;8.50;87.60;;;;;;5032279;28;20175;-73
2022/10/16 03:58:12;;;;;;;3.33;3.07;;;8.50;87.70;;;;;;5050020;28;20270;-74
2022/10/16 04:00:46;;;;;;;3.50;3.30;;;8.50;87.80;;;;;;5046184;28;20897;-74
2022/10/16 04:03:12;;;;;;;3.70;2.73;;;8.50;88.00;;;;;;5028842;28;20199;-74
2022/10/16 04:05:37;;;;;;;3.20;3.00;;;8.40;88.50;;;;;;5051379;28;20179;-73
2022/10/16 04:08:03;;;;;;;2.60;2.50;;;8.40;88.60;;;;;;5045576;28;20222;-73
2022/10/16 04:10:29;;;;;;;2.93;2.57;;;8.40;88.40;;;;;;5048546;28;20179;-73
2022/10/16 04:12:55;;;;;;;2.67;2.47;;;8.30;88.40;;;;;;5045359;28;20187;-73
2022/10/16 04:15:22;;;;;;;4.83;3.23;;;8.20;88.70;;;;;;5044135;28;20190;-73
2022/10/16 04:17:48;;;;;;;3.30;3.10;;;8.20;88.20;;;;;;5044699;28;20187;-73
2022/10/16 04:20:14;;;;;;;4.33;3.90;;;8.20;88.00;;;;;;5052160;28;20189;-73
2022/10/16 04:22:39;;;;;;;3.23;2.97;;;8.10;87.80;;;;;;5048155;28;20274;-73
2022/10/16 04:25:05;;;;;;;3.17;2.87;;;8.20;87.90;;;;;;5029588;28;20865;-73
2022/10/16 04:27:31;;;;;;;3.37;2.77;;;8.10;88.00;;;;;;5044276;28;20207;-73
2022/10/16 04:29:58;;;;;;;2.70;2.50;;;8.10;88.00;;;;;;5054810;28;20789;-74
2022/10/16 04:32:24;;;;;;;3.13;2.93;;;8.10;88.00;;;;;;5055801;28;20596;-74
2022/10/16 04:34:49;;;;;;;3.17;2.87;;;8.10;88.00;;;;;;5052983;28;20176;-74
2022/10/16 04:37:15;;;;;;;2.43;2.33;;;8.10;87.90;;;;;;5055131;28;20271;-74
2022/10/16 04:39:41;;;;;;;4.63;3.43;;;8.10;88.00;;;;;;5056145;28;20182;-73
2022/10/16 04:42:06;;;;;;;3.40;3.10;;;8.10;87.90;;;;;;5055116;28;21043;-73
2022/10/16 04:44:32;;;;;;;3.13;2.93;;;8.10;88.00;;;;;;5054116;28;20260;-73
2022/10/16 04:46:58;;;;;;;3.73;3.33;;;8.00;87.90;;;;;;5052701;28;20191;-73
2022/10/16 04:49:23;;;;;;;5.90;2.70;;;8.00;88.00;;;;;;5054071;28;20219;-72
2022/10/16 04:51:49;;;;;;;3.80;3.23;;;8.00;88.10;;;;;;5054594;28;20671;-73
2022/10/16 04:54:15;;;;;;;3.33;3.07;;;8.00;88.00;;;;;;5054704;28;20183;-75
2022/10/16 04:56:46;;;;;;;3.00;2.60;;;8.10;88.00;;;;;;5039130;28;20183;-72
2022/10/16 04:59:15;;;;;;;3.07;2.77;;;8.00;88.10;;;;;;5033121;28;20186;-74
2022/10/16 05:01:41;;;;;;;3.20;3.03;;;8.00;88.00;;;;;;5040032;28;20205;-75
2022/10/16 05:04:07;;;;;;;2.77;2.57;;;8.10;87.90;;;;;;5053279;28;20180;-73
2022/10/16 05:06:32;;;;;;;6.23;2.90;;;8.10;88.10;;;;;;5050077;28;20195;-73
2022/10/16 05:08:58;;;;;;;4.20;3.17;;;8.10;88.20;;;;;;5047222;28;20214;-75
2022/10/16 05:11:24;;;;;;;3.53;3.13;;;8.10;88.60;;;;;;5050747;28;20191;-73
2022/10/16 05:13:49;;;;;;;3.33;3.13;;;8.10;88.70;;;;;;5049708;28;20207;-73
2022/10/16 05:16:15;;;;;;;3.20;3.00;;;8.20;88.70;;;;;;5048980;28;20189;-73
2022/10/16 05:18:41;;;;;;;2.90;2.60;;;8.20;88.50;;;;;;5035477;28;20183;-74
2022/10/16 05:21:06;;;;;;;4.00;3.10;;;8.20;88.30;;;;;;5046335;28;21105;-74
2022/10/16 05:23:32;;;;;;;3.53;3.27;;;8.20;88.60;;;;;;5050197;28;20180;-73
2022/10/16 05:25:59;;;;;;;3.10;2.27;;;8.20;88.60;;;;;;5050537;28;20258;-73
2022/10/16 05:28:26;;;;;;;3.57;3.27;;;8.20;89.30;;;;;;5052703;28;20227;-74
2022/10/16 05:30:52;;;;;;;3.13;2.80;;;8.30;89.60;;;;;;5034903;28;20215;-74
2022/10/16 05:33:24;;;;;;;3.83;3.50;;;8.30;89.40;;;;;;5056394;28;20183;-74
2022/10/16 05:35:50;;;;;;;4.07;3.00;;;8.30;88.90;;;;;;5033532;28;20264;-73
2022/10/16 05:38:17;;;;;;;2.53;2.43;;;8.30;89.00;;;;;;5050878;28;20269;-73
2022/10/16 05:40:43;;;;;;;7.17;3.43;;;8.30;89.00;;;;;;5051246;28;20187;-74
2022/10/16 05:43:09;;;;;;;3.23;3.00;;;8.30;88.90;;;;;;5053008;28;20214;-74
2022/10/16 05:45:35;;;;;;;4.63;3.70;;;8.30;88.90;;;;;;5050403;28;20719;-73
2022/10/16 05:48:00;;;;;;;4.13;3.33;;;8.30;89.10;;;;;;5054314;28;20211;-73
2022/10/16 05:50:27;;;;;;;3.23;3.03;;;8.40;89.10;;;;;;5051304;28;20245;-74
2022/10/16 05:52:52;;;;;;;7.43;3.53;;;8.40;89.10;;;;;;5055531;28;20683;-73
2022/10/16 05:55:18;;;;;;;3.13;2.87;;;8.40;89.00;;;;;;5054403;28;20187;-74
2022/10/16 05:57:44;;;;;;;2.83;2.60;;;8.50;89.10;;;;;;5054994;28;20190;-74
2022/10/16 06:00:10;;;;;;;2.70;2.50;;;8.60;89.20;;;;;;5049601;28;20275;-74
2022/10/16 06:02:36;;;;;;;2.67;2.47;;;8.60;89.20;;;;;;5045808;28;20188;-74
2022/10/16 06:05:02;;;;;;;2.00;2.00;;;8.70;89.40;;;;;;5049961;28;20241;-74
2022/10/16 06:07:27;;;;;;;2.83;2.63;;;8.70;89.30;;;;;;5050832;28;20212;-74
2022/10/16 06:09:53;;;;;;;4.97;3.50;;;8.80;89.50;;;;;;5053740;28;20668;-74
2022/10/16 06:12:20;;;;;;;3.30;3.10;;;8.80;89.20;;;;;;5050147;28;20184;-73
2022/10/16 06:14:49;;;;;;;3.13;2.87;;;8.90;89.60;;;;;;5050693;28;20179;-73
2022/10/16 06:17:15;;;;;;;3.50;3.30;;;8.90;89.70;;;;;;5053672;28;20187;-73
2022/10/16 06:19:41;;;;;;;2.90;2.60;;;8.90;89.20;;;;;;5046982;28;20190;-74
2022/10/16 06:22:07;;;;;;;2.83;2.73;;;8.90;89.50;;;;;;5047227;28;20223;-73
2022/10/16 06:24:33;;;;;;;3.30;3.10;;;9.00;89.60;;;;;;5047222;28;20188;-73
2022/10/16 06:26:59;;;;;;;2.90;2.70;;;9.10;89.60;;;;;;5048525;28;20190;-73
2022/10/16 06:29:25;;;;;;;3.23;3.03;;;9.10;89.60;;;;;;5053526;28;20179;-73
2022/10/16 06:31:50;;;;;;;3.97;3.23;;;9.20;89.90;;;;;;5049451;28;20573;-73
2022/10/16 06:34:16;;;;;;;3.27;2.97;;;9.30;90.10;;;;;;5050119;28;20632;-73
2022/10/16 06:36:43;;;;;;;7.83;3.40;;;9.30;90.20;;;;;;5047395;28;20184;-73
2022/10/16 06:39:09;;;;;;;3.47;3.17;;;9.40;89.90;;;;;;5050371;28;20315;-73
2022/10/16 06:41:35;;;;;;;3.40;3.10;;;9.50;90.00;;;;;;5050154;28;20275;-73
2022/10/16 06:44:01;;;;;;;4.13;3.73;;;9.50;89.70;;;;;;5049064;28;20194;-73
2022/10/16 06:46:27;;;;;;;4.30;3.20;;;9.60;90.00;;;;;;5051807;28;20276;-72
2022/10/16 06:48:53;;;;;;;4.13;3.73;;;9.70;89.90;;;;;;5048554;28;20348;-72
2022/10/16 06:51:23;;;;;;;3.60;3.30;;;9.80;89.90;;;;;;5050439;28;20279;-74
2022/10/16 06:53:51;;;;;;;3.30;3.03;;;9.90;89.50;;;;;;5053558;28;20186;-72
2022/10/16 06:56:20;;;;;;;3.75;3.45;;;9.90;89.50;;;;;;5054656;28;20179;-74
2022/10/16 06:58:46;;;;;;;3.60;3.25;;;10.10;89.50;;;;;;5050400;28;20227;-75
2022/10/16 07:01:13;;;;;;;4.15;3.78;;;10.20;89.50;;;;;;5049637;28;20195;-74
2022/10/16 07:03:40;;;;;;;6.68;4.68;;;10.30;89.20;;;;;;5049945;28;20183;-74
2022/10/16 07:06:08;;;;;;;4.90;4.45;;;10.30;89.00;;;;;;5049728;28;20241;-73
2022/10/16 07:08:36;;;;;;;4.50;4.10;;;10.40;89.60;;;;;;5053247;28;20218;-74
2022/10/16 07:11:05;;;;;;;5.47;4.97;;;10.60;90.40;;;;;;5053053;28;20715;-73
2022/10/16 07:13:34;;;;;;;5.03;4.63;;;10.90;90.90;;;;;;5047480;28;20272;-74
2022/10/16 07:16:07;;;;;;;4.85;4.47;;;11.30;89.40;;;;;;5053890;28;20695;-73
2022/10/16 07:18:33;;;;;;;5.15;4.18;;;11.90;89.60;;;;;;5050172;28;20261;-74
2022/10/16 07:21:07;;;;;;;4.95;4.55;;;12.60;88.90;;;;;;5050096;28;20271;-74
2022/10/16 07:23:34;;;;;;;5.80;4.95;;;13.40;88.60;;;;;;5048321;28;20178;-74
2022/10/16 07:26:00;;;;;;;5.32;4.85;;;14.30;87.70;;;;;;5051902;28;20186;-73
2022/10/16 07:28:26;;;;;;;7.30;5.95;;;15.20;84.30;;;;;;5048571;28;20833;-74
2022/10/16 07:30:51;;;;;;;7.13;5.97;;;16.10;80.60;;;;;;5051754;28;20175;-73
2022/10/16 07:33:17;;;;;;;6.70;6.07;;;16.90;78.40;;;;;;5053593;28;20188;-74
2022/10/16 07:35:53;;;;;;;7.55;6.47;;;17.60;76.20;;;;;;5055126;28;20195;-73
2022/10/16 07:38:19;;;;;;;6.95;6.03;;;18.30;73.10;;;;;;5034892;28;20182;-73
2022/10/16 07:40:45;;;;;;;7.07;6.20;;;19.00;73.40;;;;;;5050624;28;20193;-73
2022/10/16 07:43:11;;;;;;;8.45;6.97;;;19.70;72.10;;;;;;5056162;28;20260;-74
2022/10/16 07:45:38;;;;;;;8.73;6.78;;;20.40;70.40;;;;;;5050743;28;20671;-73
2022/10/16 07:48:04;;;;;;;8.57;6.72;;;21.10;69.40;;;;;;5050998;28;20210;-73
2022/10/16 07:50:29;;;;;;;9.93;7.00;;;21.80;68.10;;;;;;5052603;28;20241;-74
2022/10/16 07:52:55;;;;;;;7.15;6.45;;;22.50;65.80;;;;;;5050913;28;20211;-73
2022/10/16 07:55:21;;;;;;;7.38;6.72;;;23.10;64.70;;;;;;5051192;28;20566;-73
2022/10/16 07:57:46;;;;;;;6.78;6.15;;;23.70;63.80;;;;;;5044882;28;20691;-74
2022/10/16 08:00:13;;;;;;;6.68;6.03;;;24.20;62.90;;;;;;5046993;28;20180;-73
2022/10/16 08:02:42;;;;;;;9.43;6.32;;;24.70;61.80;;;;;;5052944;28;20263;-73
2022/10/16 08:05:08;;;;;;;5.65;5.25;;;25.10;61.90;;;;;;5055211;28;20179;-74
2022/10/16 08:07:33;;;;;;;6.43;5.82;;;25.50;61.40;;;;;;5038009;28;20221;-73
2022/10/16 08:09:59;;;;;;;5.22;4.80;;;26.00;60.20;;;;;;5056684;28;20179;-73
2022/10/16 08:12:26;;;;;;;4.82;4.60;;;26.40;59.80;;;;;;5055894;28;20187;-72
2022/10/16 08:14:51;;;;;;;5.18;4.90;;;26.80;59.30;;;;;;5053870;28;20644;-72
2022/10/16 08:17:17;;;;;;;4.78;4.40;;;27.10;59.30;;;;;;5054079;28;20182;-73
2022/10/16 08:19:47;;;;;;;4.28;4.07;;;27.50;57.60;;;;;;5054639;28;20188;-73
2022/10/16 08:22:13;;;;;;;4.50;4.30;;;28.00;56.70;;;;;;5032790;28;20636;-73
2022/10/16 08:24:40;;;;;;;4.20;3.22;;;28.30;56.50;;;;;;5033120;28;20195;-72
2022/10/16 08:27:07;;;;;;;6.63;3.95;;;28.50;56.50;;;;;;5052642;28;20179;-73
2022/10/16 08:29:32;;;;;;;3.50;3.20;;;28.50;56.00;;;;;;5051491;28;20183;-75
2022/10/16 08:31:58;;;;;;;2.95;2.85;;;28.60;56.80;;;;;;5057148;28;20191;-72
2022/10/16 08:34:24;;;;;;;3.85;3.00;;;28.80;54.40;;;;;;5055619;28;20199;-74
2022/10/16 08:36:49;;;;;;;6.30;3.00;;;28.80;53.00;;;;;;5054502;28;20194;-73
2022/10/16 08:39:15;;;;;;;4.95;3.30;;;28.90;54.20;;;;;;5054579;28;20187;-73
2022/10/16 08:42:00;;;;;;;2.90;2.80;;;29.10;53.20;;;;;;5053628;28;21066;-73
2022/10/16 08:44:31;;;;;;;3.10;2.88;;;29.40;53.00;;;;;;5054386;28;20609;-73
2022/10/16 08:47:15;;;;;;;2.67;2.57;;;29.80;52.90;;;;;;5051584;28;20197;-74
2022/10/16 08:49:48;;;;;;;4.78;2.58;;;30.10;53.80;;;;;;5046779;28;21062;-73
2022/10/16 08:52:13;;;;;;;2.80;2.60;;;30.50;53.00;;;;;;5057238;28;20258;-72
2022/10/16 08:54:46;;;;;;;2.55;2.35;;;30.80;51.90;;;;;;5054282;28;20267;-72
2022/10/16 08:57:16;;;;;;;2.33;1.88;;;31.30;51.90;;;;;;5054398;28;20187;-72
2022/10/16 08:59:43;;;;;;;2.83;2.60;;;31.50;49.30;;;;;;5051934;28;20183;-72
2022/10/16 09:02:35;;;;;;;2.78;2.67;;;31.60;51.50;;;;;;5030792;28;20185;-72
2022/10/16 09:05:19;;;;;;;2.33;2.17;;;31.70;49.30;;;;;;5050995;28;20183;-72
2022/10/16 09:07:52;;;;;;;1.50;1.50;;;31.80;48.40;;;;;;5050580;28;20241;-73
2022/10/16 09:10:52;;;;;;;1.73;1.58;;;31.80;49.90;;;;;;5048432;28;20190;-72
2022/10/16 09:13:27;;;;;;;1.88;1.77;;;31.90;47.40;;;;;;5050816;28;20194;-73
2022/10/16 09:15:52;;;;;;;3.15;1.70;;;31.80;48.10;;;;;;5050244;28;20187;-74
2022/10/16 09:18:41;;;;;;;1.55;1.55;;;31.80;48.80;;;;;;5030562;28;20183;-73
2022/10/16 09:21:22;;;;;;;2.20;2.10;;;32.00;46.90;;;;;;4949621;28;20261;-73
2022/10/16 09:23:50;;;;;;;1.65;1.60;;;31.90;48.60;;;;;;4949315;28;20199;-73
2022/10/16 09:26:19;;;;;;;1.10;1.10;;;32.00;47.40;;;;;;4951049;28;20290;-73
2022/10/16 09:28:45;;;;;;;1.52;1.52;;;32.00;47.40;;;;;;4949408;28;20223;-73
2022/10/16 09:31:21;;;;;;;3.75;1.33;;;31.80;44.60;;;;;;4947528;28;20182;-73
2022/10/16 09:33:58;;;;;;;1.20;1.20;;;31.80;48.70;;;;;;4949570;28;20194;-73
2022/10/16 09:36:25;;;;;;;1.35;1.35;;;32.00;48.00;;;;;;4949500;28;20328;-72
2022/10/16 09:39:05;;;;;;;1.85;1.60;;;32.20;45.70;;;;;;4952290;28;20594;-72
2022/10/16 09:41:34;;;;;;;1.55;1.45;;;32.50;48.40;;;;;;4949521;28;20213;-72
2022/10/16 09:44:02;;;;;;;1.40;1.40;;;32.70;48.10;;;;;;4951934;28;20198;-73
2022/10/16 09:46:28;;;;;;;1.65;1.55;;;32.90;46.10;;;;;;4952578;28;20191;-73
2022/10/16 09:49:19;;;;;;;1.58;1.30;;;33.10;47.80;;;;;;4951888;28;20228;-72
2022/10/16 09:51:45;;;;;;;1.52;1.52;;;33.40;47.70;;;;;;4950568;28;20191;-72
2022/10/16 09:54:15;;;;;;;1.63;1.52;;;33.70;46.50;;;;;;4950610;28;20510;-73
2022/10/16 09:56:41;;;;;;;1.65;1.55;;;34.00;47.20;;;;;;4956040;28;20601;-73
2022/10/16 09:59:30;;;;;;;1.95;1.85;;;34.30;47.00;;;;;;5042922;28;20286;-73
2022/10/16 10:02:03;;;;;;;2.58;1.80;;;34.60;44.60;;;;;;5047636;28;20643;-73
2022/10/16 10:04:42;;;;;;;1.50;1.50;;;34.60;44.40;;;;;;5034173;28;20225;-73
2022/10/16 10:07:20;;;;;;;1.48;1.48;;;34.40;46.70;;;;;;5051073;28;20178;-73
2022/10/16 10:09:46;;;;;;;1.52;1.52;;;34.50;46.10;;;;;;5051413;28;20770;-73
2022/10/16 10:12:20;;;;;;;2.08;1.63;;;34.70;46.90;;;;;;5052420;28;20265;-73
2022/10/16 10:14:52;;;;;;;1.38;1.38;;;35.10;47.40;;;;;;5051955;28;20264;-73
2022/10/16 10:17:20;;;;;;;1.70;1.60;;;35.40;41.60;;;;;;5049842;28;20244;-73
2022/10/16 10:20:00;;;;;;;2.25;1.50;;;35.20;42.50;;;;;;5049299;28;20182;-73
2022/10/16 10:22:48;;;;;;;1.20;1.20;;;35.00;45.60;;;;;;5049226;28;20266;-74
2022/10/16 10:25:17;;;;;;;1.33;1.33;;;35.00;45.10;;;;;;5051304;28;20270;-73
2022/10/16 10:28:09;;;;;;;1.23;1.23;;;35.10;41.30;;;;;;5049302;28;20360;-73
2022/10/16 10:30:58;;;;;;;1.45;1.35;;;35.10;44.60;;;;;;5049940;28;20182;-73
2022/10/16 10:33:46;;;;;;;2.55;1.42;;;35.00;44.50;;;;;;5049942;28;20175;-73
2022/10/16 10:36:27;;;;;;;1.63;1.42;;;34.90;42.00;;;;;;5053457;28;20198;-73
2022/10/16 10:38:59;;;;;;;1.38;1.38;;;35.00;41.30;;;;;;5049103;28;20178;-73
2022/10/16 10:41:49;;;;;;;1.23;1.23;;;34.80;43.30;;;;;;5053009;28;20709;-73
2022/10/16 10:44:48;;;;;;;1.75;1.70;;;34.60;44.60;;;;;;5053019;28;20190;-73
2022/10/16 10:47:29;;;;;;;1.65;1.65;;;34.70;42.40;;;;;;5049546;28;20182;-73
2022/10/16 10:50:36;;;;;;;2.78;2.03;;;34.70;42.10;;;;;;5051054;28;20217;-73
2022/10/16 10:53:24;;;;;;;1.55;1.45;;;34.80;42.10;;;;;;4967538;28;20836;-73
2022/10/16 10:55:59;;;;;;;1.38;1.35;;;35.00;40.10;;;;;;4968759;28;20196;-73
2022/10/16 10:58:41;;;;;;;1.80;1.80;;;35.00;42.30;;;;;;4968585;28;20195;-73
2022/10/16 11:01:10;;;;;;;1.20;1.20;;;34.90;41.40;;;;;;4967592;28;20216;-73
2022/10/16 11:03:57;;;;;;;1.38;1.33;;;34.80;42.90;;;;;;4967864;28;20199;-73
2022/10/16 11:06:32;;;;;;;1.48;1.48;;;34.70;40.00;;;;;;4969441;28;20207;-73
2022/10/16 11:09:12;;;;;;;1.48;1.48;;;34.70;42.10;;;;;;4972266;28;20343;-73
2022/10/16 11:11:49;;;;;;;1.38;1.20;;;34.70;42.50;;;;;;4972550;28;20863;-73
2022/10/16 11:14:21;;;;;;;1.33;1.33;;;34.70;41.90;;;;;;4970136;28;20719;-73
2022/10/16 11:17:19;;;;;;;1.98;1.38;;;34.70;43.70;;;;;;4972190;28;20312;-73
2022/10/16 11:19:51;;;;;;;1.08;1.02;;;34.80;39.20;;;;;;4929824;29;20199;-73
2022/10/16 11:22:22;;;;;;;1.50;1.50;;;34.60;39.60;;;;;;4929213;29;20994;-73
2022/10/16 11:25:02;;;;;;;1.38;1.27;;;34.10;44.20;;;;;;4933104;29;20203;-72
2022/10/16 11:27:51;;;;;;;1.35;1.35;;;33.90;44.60;;;;;;4934305;29;20245;-73
2022/10/16 11:30:26;;;;;;;1.25;1.25;;;33.80;40.30;;;;;;4914338;29;20191;-73
2022/10/16 11:33:01;;;;;;;4.70;1.40;;;33.70;41.60;;;;;;4923708;29;20202;-73
2022/10/16 11:35:33;;;;;;;1.40;1.40;;;33.90;42.30;;;;;;4923197;29;20289;-72
2022/10/16 11:38:02;;;;;;;1.02;1.02;;;34.00;41.00;;;;;;4923275;29;20194;-73
2022/10/16 11:40:34;;;;;;;1.45;1.45;;;33.90;40.70;;;;;;4923862;29;20842;-72
2022/10/16 11:43:15;;;;;;;1.52;1.30;;;34.00;43.20;;;;;;4924722;29;20638;-72
2022/10/16 11:45:49;;;;;;;1.08;1.08;;;34.20;41.70;;;;;;4924163;29;20183;-72
2022/10/16 11:48:19;;;;;;;1.25;1.13;;;34.10;42.40;;;;;;4923483;29;20282;-72
2022/10/16 11:50:58;;;;;;;1.17;1.17;;;34.00;42.10;;;;;;4923206;29;20195;-72
2022/10/16 11:53:44;;;;;;;1.30;1.30;;;34.10;40.70;;;;;;4922178;29;20201;-72
2022/10/16 11:56:15;;;;;;;2.75;1.10;;;34.00;40.30;;;;;;4887894;29;20463;-74
2022/10/16 11:59:08;;;;;;;1.75;1.65;;;34.00;40.70;;;;;;4911397;29;20691;-74
2022/10/16 12:01:49;;;;;;;3.42;1.50;;;34.10;43.40;;;;;;4908920;29;21092;-73
2022/10/16 12:04:45;;;;;;;1.10;1.10;;;34.20;40.60;;;;;;4911711;29;20238;-73
2022/10/16 12:07:27;;;;;;;1.45;0.95;;;34.30;39.60;;;;;;4885982;29;20292;-74
2022/10/16 12:09:53;;;;;;;1.02;1.02;;;34.10;39.30;;;;;;4875319;29;20283;-73
2022/10/16 12:12:38;;;;;;;1.27;1.27;;;33.50;40.20;;;;;;4877486;29;20291;-73
2022/10/16 12:15:28;;;;;;;1.20;1.10;;;33.30;40.60;;;;;;4873397;29;20275;-73
2022/10/16 12:17:55;;;;;;;1.50;1.40;;;33.30;41.00;;;;;;4863936;29;21176;-73
2022/10/16 12:20:45;;;;;;;1.20;1.20;;;33.20;40.80;;;;;;4873555;29;20725;-73
2022/10/16 12:23:22;;;;;;;1.30;1.30;;;33.00;40.70;;;;;;4863283;29;20177;-73
2022/10/16 12:25:55;;;;;;;2.10;1.90;;;33.00;41.40;;;;;;4859895;29;20211;-72
2022/10/16 12:28:25;;;;;;;1.40;1.40;;;33.10;42.30;;;;;;4877702;29;20231;-73
2022/10/16 12:31:06;;;;;;;2.42;1.60;;;33.10;41.90;;;;;;4877326;29;20593;-74
2022/10/16 12:33:35;;;;;;;1.17;1.17;;;33.20;41.40;;;;;;4936855;28;20277;-73
2022/10/16 12:36:10;;;;;;;1.63;1.63;;;33.30;41.50;;;;;;4972539;28;20766;-72
2022/10/16 12:38:38;;;;;;;1.55;1.50;;;33.30;41.10;;;;;;4973546;28;20288;-72
2022/10/16 12:41:08;;;;;;;1.75;1.50;;;33.30;40.90;;;;;;4969789;28;20189;-71
2022/10/16 12:43:42;;;;;;;1.48;1.48;;;33.40;42.00;;;;;;4976978;28;21342;-72
2022/10/16 12:46:07;;;;;;;1.08;1.08;;;33.30;42.00;;;;;;5047336;28;20587;-72
2022/10/16 12:48:34;;;;;;;1.30;1.30;;;33.10;41.00;;;;;;5029032;28;20215;-71
2022/10/16 12:51:29;;;;;;;2.00;1.80;;;33.10;41.50;;;;;;5034957;28;20182;-71
2022/10/16 12:54:21;;;;;;;1.65;1.65;;;33.10;41.30;;;;;;4958786;28;20275;-72
2022/10/16 12:57:24;;;;;;;1.52;1.23;;;33.10;41.90;;;;;;4970027;28;20327;-73
2022/10/16 13:00:10;;;;;;;1.77;1.25;;;33.20;41.40;;;;;;4954676;28;20193;-71
2022/10/16 13:02:53;;;;;;;1.58;1.50;;;33.10;42.30;;;;;;4969297;28;20609;-72
2022/10/16 13:06:00;;;;;;;1.35;1.35;;;33.00;43.40;;;;;;4971900;28;20204;-72
2022/10/16 13:08:44;;;;;;;1.67;1.58;;;32.70;41.10;;;;;;4971094;28;20768;-72
2022/10/16 13:11:19;;;;;;;1.17;1.17;;;32.50;44.20;;;;;;4965461;28;20226;-72
2022/10/16 13:14:12;;;;;;;1.60;1.60;;;32.30;42.70;;;;;;4968650;28;20253;-75